sensor_id;sensor_type;location;lat;lon;timestamp;pressure;altitude;pressure_sealevel;temperature;humidity
77366;BME280;66430;50.182;11.704;2023-02-14T00:00:22;96445.22;;;3.94;40.35
77366;BME280;66430;50.182;11.704;2023-02-14T00:02:48;96441.89;;;3.72;41.08
77366;BME280;66430;50.182;11.704;2023-02-14T00:05:13;96441.12;;;3.78;41.16
77366;BME280;66430;50.182;11.704;2023-02-14T00:07:39;96440.06;;;3.63;41.46
77366;BME280;66430;50.182;11.704;2023-02-14T00:10:05;96446.98;;;3.64;41.69
77366;BME280;66430;50.182;11.704;2023-02-14T00:12:29;96444.15;;;3.75;41.58
77366;BME280;66430;50.182;11.704;2023-02-14T00:14:54;96443.53;;;4.18;41.48
77366;BME280;66430;50.182;11.704;2023-02-14T00:17:19;96439.49;;;3.60;41.30
77366;BME280;66430;50.182;11.704;2023-02-14T00:19:45;96435.27;;;3.70;41.37
77366;BME280;66430;50.182;11.704;2023-02-14T00:22:10;96430.66;;;3.78;41.36
77366;BME280;66430;50.182;11.704;2023-02-14T00:24:36;96432.52;;;3.83;41.27
77366;BME280;66430;50.182;11.704;2023-02-14T00:27:01;96433.41;;;3.87;41.16
77366;BME280;66430;50.182;11.704;2023-02-14T00:29:29;96432.58;;;3.89;41.29
77366;BME280;66430;50.182;11.704;2023-02-14T00:31:52;96432.97;;;3.89;41.31
77366;BME280;66430;50.182;11.704;2023-02-14T00:34:18;96433.68;;;3.89;41.04
77366;BME280;66430;50.182;11.704;2023-02-14T00:36:43;96435.03;;;3.95;41.40
77366;BME280;66430;50.182;11.704;2023-02-14T00:39:10;96439.40;;;3.94;41.43
77366;BME280;66430;50.182;11.704;2023-02-14T00:41:34;96438.24;;;3.86;41.91
77366;BME280;66430;50.182;11.704;2023-02-14T00:43:59;96432.47;;;3.44;41.16
77366;BME280;66430;50.182;11.704;2023-02-14T00:46:26;96434.90;;;3.56;41.30
77366;BME280;66430;50.182;11.704;2023-02-14T00:48:50;96439.32;;;4.11;41.35
77366;BME280;66430;50.182;11.704;2023-02-14T00:51:15;96439.35;;;4.12;41.04
77366;BME280;66430;50.182;11.704;2023-02-14T00:53:41;96440.95;;;3.59;41.09
77366;BME280;66430;50.182;11.704;2023-02-14T00:56:05;96439.23;;;3.59;41.18
77366;BME280;66430;50.182;11.704;2023-02-14T00:58:31;96442.27;;;4.00;40.52
77366;BME280;66430;50.182;11.704;2023-02-14T01:00:56;96441.24;;;4.01;40.80
77366;BME280;66430;50.182;11.704;2023-02-14T01:03:21;96439.31;;;3.45;40.54
77366;BME280;66430;50.182;11.704;2023-02-14T01:05:47;96437.83;;;3.40;40.86
77366;BME280;66430;50.182;11.704;2023-02-14T01:08:12;96435.28;;;3.55;40.49
77366;BME280;66430;50.182;11.704;2023-02-14T01:10:38;96434.52;;;3.18;40.73
77366;BME280;66430;50.182;11.704;2023-02-14T01:13:04;96432.74;;;3.00;41.11
77366;BME280;66430;50.182;11.704;2023-02-14T01:15:30;96430.96;;;3.51;41.41
77366;BME280;66430;50.182;11.704;2023-02-14T01:17:54;96431.44;;;3.55;41.43
77366;BME280;66430;50.182;11.704;2023-02-14T01:20:19;96432.87;;;3.50;41.58
77366;BME280;66430;50.182;11.704;2023-02-14T01:22:44;96436.26;;;3.56;41.58
77366;BME280;66430;50.182;11.704;2023-02-14T01:25:09;96432.93;;;3.60;41.41
77366;BME280;66430;50.182;11.704;2023-02-14T01:27:35;96432.99;;;3.41;41.27
77366;BME280;66430;50.182;11.704;2023-02-14T01:30:00;96431.83;;;3.21;40.95
77366;BME280;66430;50.182;11.704;2023-02-14T01:32:25;96425.82;;;3.69;40.57
77366;BME280;66430;50.182;11.704;2023-02-14T01:34:50;96422.28;;;3.54;40.49
77366;BME280;66430;50.182;11.704;2023-02-14T01:37:15;96423.20;;;3.52;40.52
77366;BME280;66430;50.182;11.704;2023-02-14T01:39:41;96420.60;;;3.28;40.49
77366;BME280;66430;50.182;11.704;2023-02-14T01:42:14;96415.88;;;3.42;40.62
77366;BME280;66430;50.182;11.704;2023-02-14T01:47:00;96418.30;;;3.19;41.34
77366;BME280;66430;50.182;11.704;2023-02-14T01:49:26;96419.56;;;3.41;41.39
77366;BME280;66430;50.182;11.704;2023-02-14T01:51:53;96413.82;;;3.35;40.76
77366;BME280;66430;50.182;11.704;2023-02-14T01:54:17;96408.63;;;3.12;40.90
77366;BME280;66430;50.182;11.704;2023-02-14T01:56:42;96404.68;;;3.13;40.99
77366;BME280;66430;50.182;11.704;2023-02-14T01:59:08;96405.10;;;3.07;40.81
77366;BME280;66430;50.182;11.704;2023-02-14T02:01:30;96409.22;;;3.15;41.40
77366;BME280;66430;50.182;11.704;2023-02-14T02:03:57;96410.06;;;3.12;41.44
77366;BME280;66430;50.182;11.704;2023-02-14T02:06:25;96403.37;;;3.03;41.03
77366;BME280;66430;50.182;11.704;2023-02-14T02:08:52;96404.13;;;2.89;40.92
77366;BME280;66430;50.182;11.704;2023-02-14T02:11:11;96408.74;;;2.89;40.69
77366;BME280;66430;50.182;11.704;2023-02-14T02:13:37;96406.99;;;2.78;40.41
77366;BME280;66430;50.182;11.704;2023-02-14T02:16:15;96408.32;;;2.67;40.37
77366;BME280;66430;50.182;11.704;2023-02-14T02:18:37;96406.12;;;2.56;40.44
77366;BME280;66430;50.182;11.704;2023-02-14T02:21:14;96407.61;;;2.79;40.64
77366;BME280;66430;50.182;11.704;2023-02-14T02:35:38;96398.58;;;2.50;41.60
77366;BME280;66430;50.182;11.704;2023-02-14T02:38:03;96396.90;;;2.96;41.88
77366;BME280;66430;50.182;11.704;2023-02-14T02:40:25;96397.17;;;2.87;42.25
77366;BME280;66430;50.182;11.704;2023-02-14T02:42:47;96388.23;;;2.99;42.11
77366;BME280;66430;50.182;11.704;2023-02-14T02:45:12;96381.58;;;3.02;41.96
77366;BME280;66430;50.182;11.704;2023-02-14T02:47:36;96378.55;;;2.97;42.04
77366;BME280;66430;50.182;11.704;2023-02-14T02:50:03;96380.23;;;3.14;42.14
77366;BME280;66430;50.182;11.704;2023-02-14T02:52:26;96384.36;;;2.93;42.40
77366;BME280;66430;50.182;11.704;2023-02-14T02:54:51;96379.99;;;3.28;42.35
77366;BME280;66430;50.182;11.704;2023-02-14T02:57:20;96379.87;;;3.36;42.31
77366;BME280;66430;50.182;11.704;2023-02-14T02:59:41;96385.91;;;3.48;42.23
77366;BME280;66430;50.182;11.704;2023-02-14T03:02:11;96387.95;;;3.43;42.40
77366;BME280;66430;50.182;11.704;2023-02-14T03:04:33;96388.71;;;3.22;42.66
77366;BME280;66430;50.182;11.704;2023-02-14T03:06:58;96384.65;;;3.27;42.90
77366;BME280;66430;50.182;11.704;2023-02-14T03:11:53;96393.54;;;3.47;42.90
77366;BME280;66430;50.182;11.704;2023-02-14T03:14:17;96396.53;;;3.36;42.87
77366;BME280;66430;50.182;11.704;2023-02-14T03:16:49;96399.62;;;3.70;42.75
77366;BME280;66430;50.182;11.704;2023-02-14T03:21:32;96399.08;;;3.52;42.42
77366;BME280;66430;50.182;11.704;2023-02-14T03:23:56;96402.81;;;2.95;42.35
77366;BME280;66430;50.182;11.704;2023-02-14T03:26:21;96403.44;;;3.41;42.46
77366;BME280;66430;50.182;11.704;2023-02-14T03:28:50;96399.20;;;2.95;43.38
77366;BME280;66430;50.182;11.704;2023-02-14T03:31:16;96398.92;;;3.30;43.30
77366;BME280;66430;50.182;11.704;2023-02-14T03:33:42;96399.73;;;3.29;43.23
77366;BME280;66430;50.182;11.704;2023-02-14T03:36:07;96400.44;;;3.17;43.34
77366;BME280;66430;50.182;11.704;2023-02-14T03:38:31;96400.04;;;2.94;43.23
77366;BME280;66430;50.182;11.704;2023-02-14T03:40:54;96399.33;;;3.36;43.24
77366;BME280;66430;50.182;11.704;2023-02-14T03:43:19;96400.68;;;3.30;43.62
77366;BME280;66430;50.182;11.704;2023-02-14T03:45:44;96397.54;;;2.92;44.05
77366;BME280;66430;50.182;11.704;2023-02-14T03:48:09;96391.02;;;2.99;44.06
77366;BME280;66430;50.182;11.704;2023-02-14T03:50:32;96390.68;;;3.19;44.10
77366;BME280;66430;50.182;11.704;2023-02-14T03:52:57;96392.51;;;3.38;43.96
77366;BME280;66430;50.182;11.704;2023-02-14T03:55:27;96395.91;;;3.11;43.80
77366;BME280;66430;50.182;11.704;2023-02-14T03:57:52;96395.15;;;3.65;43.62
77366;BME280;66430;50.182;11.704;2023-02-14T04:00:14;96393.61;;;3.35;43.58
77366;BME280;66430;50.182;11.704;2023-02-14T04:02:41;96395.49;;;3.33;43.74
77366;BME280;66430;50.182;11.704;2023-02-14T04:05:09;96395.16;;;3.67;43.76
77366;BME280;66430;50.182;11.704;2023-02-14T04:07:30;96400.76;;;3.56;43.48
77366;BME280;66430;50.182;11.704;2023-02-14T04:09:55;96401.22;;;3.77;43.51
77366;BME280;66430;50.182;11.704;2023-02-14T04:12:20;96399.80;;;3.51;43.43
77366;BME280;66430;50.182;11.704;2023-02-14T04:14:45;96395.50;;;3.35;43.56
77366;BME280;66430;50.182;11.704;2023-02-14T04:17:10;96393.88;;;3.67;44.08
77366;BME280;66430;50.182;11.704;2023-02-14T04:19:35;96393.22;;;3.35;43.92
77366;BME280;66430;50.182;11.704;2023-02-14T04:22:01;96391.77;;;4.04;43.32
77366;BME280;66430;50.182;11.704;2023-02-14T04:24:26;96389.53;;;3.55;43.15
77366;BME280;66430;50.182;11.704;2023-02-14T04:26:51;96388.43;;;3.40;43.72
77366;BME280;66430;50.182;11.704;2023-02-14T04:29:16;96388.13;;;2.90;44.06
77366;BME280;66430;50.182;11.704;2023-02-14T04:31:41;96386.25;;;3.70;43.71
77366;BME280;66430;50.182;11.704;2023-02-14T04:34:06;96385.04;;;3.43;43.86
77366;BME280;66430;50.182;11.704;2023-02-14T04:36:31;96387.35;;;3.22;44.13
77366;BME280;66430;50.182;11.704;2023-02-14T04:38:57;96391.74;;;3.04;44.35
77366;BME280;66430;50.182;11.704;2023-02-14T04:41:23;96394.50;;;3.20;44.04
77366;BME280;66430;50.182;11.704;2023-02-14T04:43:48;96394.20;;;3.09;44.38
77366;BME280;66430;50.182;11.704;2023-02-14T04:46:13;96396.73;;;3.13;44.28
77366;BME280;66430;50.182;11.704;2023-02-14T04:48:38;96395.47;;;2.71;44.50
77366;BME280;66430;50.182;11.704;2023-02-14T04:53:29;96395.86;;;2.54;44.77
77366;BME280;66430;50.182;11.704;2023-02-14T04:55:54;96395.97;;;2.63;44.44
77366;BME280;66430;50.182;11.704;2023-02-14T04:58:20;96395.94;;;2.82;44.08
77366;BME280;66430;50.182;11.704;2023-02-14T05:00:46;96397.86;;;2.80;43.70
77366;BME280;66430;50.182;11.704;2023-02-14T05:03:11;96400.04;;;2.83;43.24
77366;BME280;66430;50.182;11.704;2023-02-14T05:05:36;96393.09;;;3.00;42.87
77366;BME280;66430;50.182;11.704;2023-02-14T05:08:02;96390.41;;;2.93;42.78
77366;BME280;66430;50.182;11.704;2023-02-14T05:10:27;96389.69;;;2.64;42.96
77366;BME280;66430;50.182;11.704;2023-02-14T05:12:52;96386.36;;;2.70;42.96
77366;BME280;66430;50.182;11.704;2023-02-14T05:15:18;96386.04;;;2.67;42.98
77366;BME280;66430;50.182;11.704;2023-02-14T05:17:43;96385.82;;;2.86;42.62
77366;BME280;66430;50.182;11.704;2023-02-14T05:20:09;96384.90;;;2.78;42.51
77366;BME280;66430;50.182;11.704;2023-02-14T05:22:34;96383.91;;;3.07;42.25
77366;BME280;66430;50.182;11.704;2023-02-14T05:24:59;96384.70;;;2.81;42.07
77366;BME280;66430;50.182;11.704;2023-02-14T05:27:24;96382.88;;;3.03;41.97
77366;BME280;66430;50.182;11.704;2023-02-14T05:29:50;96377.43;;;2.80;42.08
77366;BME280;66430;50.182;11.704;2023-02-14T05:32:16;96374.62;;;2.59;42.25
77366;BME280;66430;50.182;11.704;2023-02-14T05:34:41;96377.76;;;2.49;42.02
77366;BME280;66430;50.182;11.704;2023-02-14T05:37:06;96378.01;;;2.59;41.92
77366;BME280;66430;50.182;11.704;2023-02-14T05:39:32;96379.36;;;2.92;41.88
77366;BME280;66430;50.182;11.704;2023-02-14T05:41:58;96382.72;;;2.70;41.91
77366;BME280;66430;50.182;11.704;2023-02-14T05:44:23;96379.64;;;2.77;41.54
77366;BME280;66430;50.182;11.704;2023-02-14T05:46:54;96379.28;;;2.65;41.13
77366;BME280;66430;50.182;11.704;2023-02-14T05:49:15;96380.50;;;2.55;41.19
77366;BME280;66430;50.182;11.704;2023-02-14T05:51:40;96380.82;;;2.61;41.11
77366;BME280;66430;50.182;11.704;2023-02-14T05:54:05;96380.65;;;3.22;40.78
77366;BME280;66430;50.182;11.704;2023-02-14T05:56:30;96381.08;;;3.01;40.54
77366;BME280;66430;50.182;11.704;2023-02-14T05:58:56;96380.50;;;2.84;40.15
77366;BME280;66430;50.182;11.704;2023-02-14T06:01:22;96382.18;;;3.06;39.95
77366;BME280;66430;50.182;11.704;2023-02-14T06:03:47;96379.98;;;2.74;39.79
77366;BME280;66430;50.182;11.704;2023-02-14T06:06:12;96378.66;;;2.60;39.64
77366;BME280;66430;50.182;11.704;2023-02-14T06:08:38;96380.14;;;2.46;39.88
77366;BME280;66430;50.182;11.704;2023-02-14T06:11:03;96382.15;;;2.55;40.10
77366;BME280;66430;50.182;11.704;2023-02-14T06:13:29;96380.06;;;2.55;40.35
77366;BME280;66430;50.182;11.704;2023-02-14T06:15:54;96377.81;;;2.40;40.09
77366;BME280;66430;50.182;11.704;2023-02-14T06:18:19;96375.70;;;2.39;39.16
77366;BME280;66430;50.182;11.704;2023-02-14T06:20:47;96378.79;;;2.61;39.04
77366;BME280;66430;50.182;11.704;2023-02-14T06:23:09;96383.16;;;2.55;38.65
77366;BME280;66430;50.182;11.704;2023-02-14T06:25:35;96382.97;;;2.49;38.78
77366;BME280;66430;50.182;11.704;2023-02-14T06:28:00;96379.16;;;2.64;38.55
77366;BME280;66430;50.182;11.704;2023-02-14T06:30:25;96373.67;;;2.48;38.80
77366;BME280;66430;50.182;11.704;2023-02-14T06:32:55;96373.02;;;2.21;38.89
77366;BME280;66430;50.182;11.704;2023-02-14T06:35:15;96371.68;;;2.14;39.26
77366;BME280;66430;50.182;11.704;2023-02-14T06:37:40;96368.04;;;2.03;39.87
77366;BME280;66430;50.182;11.704;2023-02-14T06:40:07;96367.57;;;1.90;40.19
77366;BME280;66430;50.182;11.704;2023-02-14T06:42:31;96367.35;;;1.93;40.20
77366;BME280;66430;50.182;11.704;2023-02-14T06:44:56;96369.35;;;2.16;40.36
77366;BME280;66430;50.182;11.704;2023-02-14T06:47:21;96367.57;;;2.26;39.98
77366;BME280;66430;50.182;11.704;2023-02-14T06:49:47;96370.82;;;2.35;39.70
77366;BME280;66430;50.182;11.704;2023-02-14T06:52:12;96373.20;;;2.40;39.26
77366;BME280;66430;50.182;11.704;2023-02-14T06:54:37;96373.83;;;2.43;38.67
77366;BME280;66430;50.182;11.704;2023-02-14T06:57:03;96378.26;;;1.99;38.10
77366;BME280;66430;50.182;11.704;2023-02-14T06:59:29;96380.72;;;2.22;38.35
77366;BME280;66430;50.182;11.704;2023-02-14T07:01:58;96379.76;;;2.15;38.38
77366;BME280;66430;50.182;11.704;2023-02-14T07:04:20;96375.73;;;1.94;38.38
77366;BME280;66430;50.182;11.704;2023-02-14T07:06:45;96373.94;;;2.23;38.27
77366;BME280;66430;50.182;11.704;2023-02-14T07:09:11;96370.02;;;1.99;38.68
77366;BME280;66430;50.182;11.704;2023-02-14T07:11:36;96367.63;;;2.07;38.93
77366;BME280;66430;50.182;11.704;2023-02-14T07:14:01;96368.00;;;2.34;38.97
77366;BME280;66430;50.182;11.704;2023-02-14T07:16:27;96366.90;;;2.39;39.25
77366;BME280;66430;50.182;11.704;2023-02-14T07:18:52;96363.23;;;2.40;39.09
77366;BME280;66430;50.182;11.704;2023-02-14T07:21:17;96360.53;;;2.43;38.90
77366;BME280;66430;50.182;11.704;2023-02-14T07:23:43;96358.44;;;2.13;39.07
77366;BME280;66430;50.182;11.704;2023-02-14T07:26:08;96360.72;;;2.44;39.89
77366;BME280;66430;50.182;11.704;2023-02-14T07:28:33;96358.94;;;2.31;39.29
77366;BME280;66430;50.182;11.704;2023-02-14T07:30:59;96358.56;;;2.61;38.90
77366;BME280;66430;50.182;11.704;2023-02-14T07:33:24;96358.88;;;2.20;39.48
77366;BME280;66430;50.182;11.704;2023-02-14T07:35:50;96353.16;;;2.21;39.80
77366;BME280;66430;50.182;11.704;2023-02-14T07:38:15;96353.71;;;2.40;40.10
77366;BME280;66430;50.182;11.704;2023-02-14T07:40:40;96355.60;;;2.27;40.77
77366;BME280;66430;50.182;11.704;2023-02-14T07:43:05;96354.07;;;2.36;40.83
77366;BME280;66430;50.182;11.704;2023-02-14T07:45:31;96351.91;;;2.50;40.54
77366;BME280;66430;50.182;11.704;2023-02-14T07:47:55;96349.73;;;2.12;40.85
77366;BME280;66430;50.182;11.704;2023-02-14T07:50:22;96352.45;;;2.49;41.00
77366;BME280;66430;50.182;11.704;2023-02-14T07:52:46;96353.74;;;2.85;40.52
77366;BME280;66430;50.182;11.704;2023-02-14T07:55:12;96355.38;;;2.72;40.28
77366;BME280;66430;50.182;11.704;2023-02-14T07:57:38;96351.08;;;2.42;39.82
77366;BME280;66430;50.182;11.704;2023-02-14T08:00:04;96341.89;;;2.54;39.76
77366;BME280;66430;50.182;11.704;2023-02-14T08:02:28;96341.92;;;2.64;39.69
77366;BME280;66430;50.182;11.704;2023-02-14T08:04:53;96345.79;;;2.73;39.64
77366;BME280;66430;50.182;11.704;2023-02-14T08:07:18;96346.10;;;2.80;39.33
77366;BME280;66430;50.182;11.704;2023-02-14T08:09:44;96344.90;;;2.92;38.87
77366;BME280;66430;50.182;11.704;2023-02-14T08:12:09;96344.54;;;2.93;39.18
77366;BME280;66430;50.182;11.704;2023-02-14T08:14:37;96340.30;;;2.67;39.10
77366;BME280;66430;50.182;11.704;2023-02-14T08:17:00;96336.67;;;2.87;39.12
77366;BME280;66430;50.182;11.704;2023-02-14T08:19:25;96333.54;;;2.63;39.16
77366;BME280;66430;50.182;11.704;2023-02-14T08:21:50;96334.01;;;2.64;39.26
77366;BME280;66430;50.182;11.704;2023-02-14T08:24:16;96337.54;;;2.99;39.47
77366;BME280;66430;50.182;11.704;2023-02-14T08:26:42;96340.76;;;3.02;39.62
77366;BME280;66430;50.182;11.704;2023-02-14T08:29:07;96338.35;;;2.76;39.72
77366;BME280;66430;50.182;11.704;2023-02-14T08:31:32;96332.05;;;2.73;39.57
77366;BME280;66430;50.182;11.704;2023-02-14T08:33:58;96331.44;;;3.30;39.76
77366;BME280;66430;50.182;11.704;2023-02-14T08:36:23;96331.48;;;2.89;40.00
77366;BME280;66430;50.182;11.704;2023-02-14T08:38:49;96333.50;;;3.08;40.40
77366;BME280;66430;50.182;11.704;2023-02-14T08:41:15;96331.24;;;3.36;40.24
77366;BME280;66430;50.182;11.704;2023-02-14T08:43:40;96331.59;;;2.92;39.98
77366;BME280;66430;50.182;11.704;2023-02-14T08:46:05;96333.23;;;3.29;39.92
77366;BME280;66430;50.182;11.704;2023-02-14T08:48:31;96331.53;;;3.29;39.97
77366;BME280;66430;50.182;11.704;2023-02-14T08:50:56;96327.72;;;3.30;40.03
77366;BME280;66430;50.182;11.704;2023-02-14T08:53:22;96326.30;;;3.35;40.22
77366;BME280;66430;50.182;11.704;2023-02-14T08:55:47;96328.76;;;3.39;40.39
77366;BME280;66430;50.182;11.704;2023-02-14T08:58:13;96323.13;;;3.02;40.38
77366;BME280;66430;50.182;11.704;2023-02-14T09:00:38;96322.85;;;3.55;40.28
77366;BME280;66430;50.182;11.704;2023-02-14T09:03:03;96326.67;;;3.34;40.67
77366;BME280;66430;50.182;11.704;2023-02-14T09:05:33;96329.68;;;3.68;40.71
77366;BME280;66430;50.182;11.704;2023-02-14T09:07:53;96329.25;;;3.56;40.78
77366;BME280;66430;50.182;11.704;2023-02-14T09:10:19;96329.66;;;3.38;40.86
77366;BME280;66430;50.182;11.704;2023-02-14T09:12:44;96325.51;;;3.59;40.59
77366;BME280;66430;50.182;11.704;2023-02-14T09:15:10;96324.93;;;3.94;40.97
77366;BME280;66430;50.182;11.704;2023-02-14T09:17:35;96327.49;;;3.70;41.07
77366;BME280;66430;50.182;11.704;2023-02-14T09:20:01;96330.12;;;3.95;41.37
77366;BME280;66430;50.182;11.704;2023-02-14T09:22:27;96328.64;;;3.94;41.56
77366;BME280;66430;50.182;11.704;2023-02-14T09:24:52;96331.68;;;4.19;41.43
77366;BME280;66430;50.182;11.704;2023-02-14T09:27:17;96334.37;;;4.22;41.11
77366;BME280;66430;50.182;11.704;2023-02-14T09:29:43;96331.61;;;3.82;41.45
77366;BME280;66430;50.182;11.704;2023-02-14T09:32:10;96330.41;;;3.92;41.54
77366;BME280;66430;50.182;11.704;2023-02-14T09:34:35;96325.28;;;4.06;41.65
77366;BME280;66430;50.182;11.704;2023-02-14T09:37:00;96326.40;;;4.06;41.74
77366;BME280;66430;50.182;11.704;2023-02-14T09:39:26;96325.90;;;4.11;41.80
77366;BME280;66430;50.182;11.704;2023-02-14T09:42:01;96322.42;;;4.17;41.96
77366;BME280;66430;50.182;11.704;2023-02-14T09:44:23;96322.61;;;4.25;41.96
77366;BME280;66430;50.182;11.704;2023-02-14T09:46:49;96324.45;;;4.39;41.89
77366;BME280;66430;50.182;11.704;2023-02-14T09:49:08;96322.65;;;4.36;42.26
77366;BME280;66430;50.182;11.704;2023-02-14T09:51:33;96320.62;;;4.40;42.56
77366;BME280;66430;50.182;11.704;2023-02-14T09:54:04;96320.10;;;4.58;42.56
77366;BME280;66430;50.182;11.704;2023-02-14T09:56:30;96321.58;;;4.51;42.35
77366;BME280;66430;50.182;11.704;2023-02-14T09:58:54;96321.21;;;4.15;42.87
77366;BME280;66430;50.182;11.704;2023-02-14T10:01:22;96316.90;;;4.60;42.61
77366;BME280;66430;50.182;11.704;2023-02-14T10:03:52;96315.95;;;4.97;42.47
77366;BME280;66430;50.182;11.704;2023-02-14T10:06:15;96319.00;;;4.58;42.62
77366;BME280;66430;50.182;11.704;2023-02-14T10:08:43;96319.54;;;4.95;42.52
77366;BME280;66430;50.182;11.704;2023-02-14T10:11:03;96320.78;;;4.80;42.48
77366;BME280;66430;50.182;11.704;2023-02-14T10:13:29;96320.34;;;5.00;42.45
77366;BME280;66430;50.182;11.704;2023-02-14T10:15:57;96320.00;;;5.35;42.51
77366;BME280;66430;50.182;11.704;2023-02-14T10:18:19;96321.73;;;5.21;42.50
77366;BME280;66430;50.182;11.704;2023-02-14T10:20:42;96321.10;;;5.28;42.45
77366;BME280;66430;50.182;11.704;2023-02-14T10:23:21;96317.10;;;5.43;42.47
77366;BME280;66430;50.182;11.704;2023-02-14T10:25:38;96315.17;;;5.44;42.64
77366;BME280;66430;50.182;11.704;2023-02-14T10:28:01;96312.81;;;5.25;42.90
77366;BME280;66430;50.182;11.704;2023-02-14T10:30:24;96308.34;;;5.64;42.91
77366;BME280;66430;50.182;11.704;2023-02-14T10:32:58;96310.84;;;5.80;42.82
77366;BME280;66430;50.182;11.704;2023-02-14T10:35:22;96310.27;;;5.89;42.90
77366;BME280;66430;50.182;11.704;2023-02-14T10:37:51;96311.51;;;6.02;42.71
77366;BME280;66430;50.182;11.704;2023-02-14T10:42:40;96314.63;;;6.21;42.84
77366;BME280;66430;50.182;11.704;2023-02-14T10:45:07;96312.29;;;6.34;42.75
77366;BME280;66430;50.182;11.704;2023-02-14T10:47:34;96310.50;;;5.99;42.62
77366;BME280;66430;50.182;11.704;2023-02-14T10:49:55;96308.52;;;6.34;42.52
77366;BME280;66430;50.182;11.704;2023-02-14T10:52:20;96308.71;;;6.19;42.57
77366;BME280;66430;50.182;11.704;2023-02-14T10:54:40;96306.70;;;6.31;42.49
77366;BME280;66430;50.182;11.704;2023-02-14T10:57:10;96303.94;;;6.36;42.63
77366;BME280;66430;50.182;11.704;2023-02-14T10:59:34;96304.37;;;6.45;42.44
77366;BME280;66430;50.182;11.704;2023-02-14T11:01:56;96306.42;;;6.51;42.60
77366;BME280;66430;50.182;11.704;2023-02-14T11:04:22;96305.11;;;6.66;42.55
77366;BME280;66430;50.182;11.704;2023-02-14T11:06:46;96303.97;;;6.64;42.82
77366;BME280;66430;50.182;11.704;2023-02-14T11:09:11;96305.18;;;6.78;42.73
77366;BME280;66430;50.182;11.704;2023-02-14T11:11:41;96303.82;;;7.36;42.58
77366;BME280;66430;50.182;11.704;2023-02-14T11:16:30;96304.16;;;6.92;42.76
77366;BME280;66430;50.182;11.704;2023-02-14T11:19:07;96303.31;;;7.06;42.51
77366;BME280;66430;50.182;11.704;2023-02-14T11:21:19;96300.28;;;7.15;42.60
77366;BME280;66430;50.182;11.704;2023-02-14T11:23:46;96297.17;;;7.21;42.60
77366;BME280;66430;50.182;11.704;2023-02-14T11:26:19;96297.50;;;7.24;42.55
77366;BME280;66430;50.182;11.704;2023-02-14T11:28:37;96295.91;;;7.11;42.41
77366;BME280;66430;50.182;11.704;2023-02-14T11:31:01;96289.50;;;7.19;42.64
77366;BME280;66430;50.182;11.704;2023-02-14T11:33:33;96288.60;;;7.27;42.57
77366;BME280;66430;50.182;11.704;2023-02-14T11:35:52;96287.02;;;7.14;42.52
77366;BME280;66430;50.182;11.704;2023-02-14T11:38:26;96282.98;;;7.63;42.10
77366;BME280;66430;50.182;11.704;2023-02-14T11:40:42;96280.98;;;7.48;41.86
77366;BME280;66430;50.182;11.704;2023-02-14T11:43:17;96277.79;;;7.61;42.14
77366;BME280;66430;50.182;11.704;2023-02-14T11:45:35;96279.69;;;7.61;42.33
77366;BME280;66430;50.182;11.704;2023-02-14T11:50:25;96273.74;;;7.47;42.09
77366;BME280;66430;50.182;11.704;2023-02-14T11:52:51;96270.99;;;7.46;42.16
77366;BME280;66430;50.182;11.704;2023-02-14T11:55:21;96270.71;;;7.76;41.95
77366;BME280;66430;50.182;11.704;2023-02-14T11:57:40;96267.48;;;7.87;41.72
77366;BME280;66430;50.182;11.704;2023-02-14T12:00:15;96262.62;;;7.60;41.73
77366;BME280;66430;50.182;11.704;2023-02-14T12:02:37;96265.07;;;7.86;41.85
77366;BME280;66430;50.182;11.704;2023-02-14T12:05:00;96268.59;;;7.67;41.48
77366;BME280;66430;50.182;11.704;2023-02-14T12:07:26;96268.16;;;8.10;41.28
77366;BME280;66430;50.182;11.704;2023-02-14T12:12:19;96259.58;;;7.83;41.25
77366;BME280;66430;50.182;11.704;2023-02-14T12:14:39;96255.49;;;8.00;40.79
77366;BME280;66430;50.182;11.704;2023-02-14T12:17:17;96257.21;;;7.91;40.37
77366;BME280;66430;50.182;11.704;2023-02-14T12:19:35;96254.09;;;8.03;40.12
77366;BME280;66430;50.182;11.704;2023-02-14T12:21:58;96251.25;;;7.52;40.12
77366;BME280;66430;50.182;11.704;2023-02-14T12:24:28;96248.96;;;7.93;40.01
77366;BME280;66430;50.182;11.704;2023-02-14T12:26:53;96243.95;;;7.97;40.04
77366;BME280;66430;50.182;11.704;2023-02-14T12:29:20;96242.78;;;7.71;40.20
77366;BME280;66430;50.182;11.704;2023-02-14T12:31:38;96238.79;;;8.04;40.36
77366;BME280;66430;50.182;11.704;2023-02-14T12:34:03;96235.99;;;8.06;40.05
77366;BME280;66430;50.182;11.704;2023-02-14T12:36:43;96236.68;;;7.95;40.10
77366;BME280;66430;50.182;11.704;2023-02-14T12:39:01;96232.60;;;8.37;39.86
77366;BME280;66430;50.182;11.704;2023-02-14T12:41:30;96230.49;;;8.09;39.85
77366;BME280;66430;50.182;11.704;2023-02-14T12:43:47;96225.53;;;7.91;40.05
77366;BME280;66430;50.182;11.704;2023-02-14T12:46:27;96222.61;;;7.96;40.08
77366;BME280;66430;50.182;11.704;2023-02-14T12:48:45;96223.56;;;8.07;39.98
77366;BME280;66430;50.182;11.704;2023-02-14T12:51:05;96221.81;;;8.17;39.98
77366;BME280;66430;50.182;11.704;2023-02-14T12:53:40;96220.18;;;8.12;40.33
77366;BME280;66430;50.182;11.704;2023-02-14T12:55:57;96220.51;;;8.13;40.31
77366;BME280;66430;50.182;11.704;2023-02-14T12:58:28;96218.47;;;7.80;40.38
77366;BME280;66430;50.182;11.704;2023-02-14T13:00:50;96218.59;;;7.80;40.18
77366;BME280;66430;50.182;11.704;2023-02-14T13:03:23;96215.67;;;8.24;39.96
77366;BME280;66430;50.182;11.704;2023-02-14T13:05:42;96211.53;;;8.04;39.98
77366;BME280;66430;50.182;11.704;2023-02-14T13:08:10;96212.34;;;8.34;39.86
77366;BME280;66430;50.182;11.704;2023-02-14T13:10:34;96207.81;;;8.36;39.89
77366;BME280;66430;50.182;11.704;2023-02-14T13:12:53;96203.31;;;7.79;39.99
77366;BME280;66430;50.182;11.704;2023-02-14T13:15:24;96200.73;;;8.21;40.07
77366;BME280;66430;50.182;11.704;2023-02-14T13:17:44;96202.38;;;8.01;39.82
77366;BME280;66430;50.182;11.704;2023-02-14T13:22:32;96195.16;;;8.05;40.15